createdAt,value
2023-05-08T00:00:10.757Z,12.78
2023-05-08T00:02:37.699Z,12.67
2023-05-08T00:05:04.786Z,12.72
2023-05-08T00:07:31.598Z,12.59
2023-05-08T00:09:58.320Z,12.55
2023-05-08T00:12:25.041Z,12.63
2023-05-08T00:14:51.691Z,12.62
2023-05-08T00:17:18.405Z,12.69
2023-05-08T00:19:45.074Z,12.64
2023-05-08T00:22:11.757Z,12.51
2023-05-08T00:24:38.488Z,12.64
2023-05-08T00:27:05.230Z,12.52
2023-05-08T00:29:32.073Z,12.61
2023-05-08T00:31:58.741Z,12.62
2023-05-08T00:34:25.474Z,12.53
2023-05-08T00:36:52.655Z,12.56
2023-05-08T00:39:19.439Z,12.51
2023-05-08T00:41:46.545Z,12.56
2023-05-08T00:44:13.383Z,12.46
2023-05-08T00:46:42.078Z,12.43
2023-05-08T00:49:14.650Z,12.38
2023-05-08T00:51:43.396Z,12.49
2023-05-08T00:54:10.797Z,12.47
2023-05-08T00:56:38.836Z,12.41
2023-05-08T00:59:10.503Z,12.34
2023-05-08T01:01:38.085Z,12.33
2023-05-08T01:04:05.498Z,12.22
2023-05-08T01:06:32.306Z,12.26
2023-05-08T01:08:59.610Z,12.41
2023-05-08T01:11:44.003Z,12.34
2023-05-08T01:14:13.875Z,12.32
2023-05-08T01:17:12.699Z,12.24
2023-05-08T01:19:51.467Z,12.14
2023-05-08T01:22:33.174Z,12.17
2023-05-08T01:25:21.649Z,12.15
2023-05-08T01:28:14.010Z,12.33
2023-05-08T01:31:03.070Z,12.19
2023-05-08T01:33:46.449Z,12.13
2023-05-08T01:36:27.907Z,12.00
2023-05-08T01:39:02.259Z,11.94
2023-05-08T01:41:31.791Z,11.92
2023-05-08T01:44:17.399Z,11.93
2023-05-08T01:46:50.269Z,12.06
2023-05-08T01:49:35.583Z,12.09
2023-05-08T01:52:15.923Z,12.05
2023-05-08T01:55:04.107Z,11.96
2023-05-08T01:57:34.829Z,11.98
2023-05-08T02:00:03.715Z,11.88
2023-05-08T02:02:37.154Z,11.84
2023-05-08T02:05:07.694Z,11.84
2023-05-08T02:07:38.333Z,11.78
2023-05-08T02:10:06.558Z,11.94
2023-05-08T02:12:34.402Z,11.90
2023-05-08T02:15:03.140Z,11.98
2023-05-08T02:17:31.739Z,11.94
2023-05-08T02:20:01.719Z,11.85
2023-05-08T02:22:30.219Z,11.74
2023-05-08T02:24:58.368Z,11.80
2023-05-08T02:27:28.058Z,11.79
2023-05-08T02:29:57.483Z,11.80
2023-05-08T02:32:25.943Z,11.72
2023-05-08T02:35:03.243Z,11.68
2023-05-08T02:37:32.088Z,11.72
2023-05-08T02:39:59.131Z,11.67
2023-05-08T02:42:26.153Z,11.65
2023-05-08T02:44:53.075Z,11.71
2023-05-08T02:47:27.814Z,11.61
2023-05-08T02:50:22.303Z,11.59
2023-05-08T02:52:51.016Z,11.71
2023-05-08T02:55:32.746Z,11.64
2023-05-08T02:58:26.480Z,11.57
2023-05-08T03:01:13.315Z,11.51
2023-05-08T03:03:43.535Z,11.53
2023-05-08T03:06:17.346Z,11.54
2023-05-08T03:08:45.688Z,11.57
2023-05-08T03:11:16.282Z,11.59
2023-05-08T03:13:47.281Z,11.65
2023-05-08T03:16:23.215Z,11.73
2023-05-08T03:19:07.770Z,11.76
2023-05-08T03:21:37.561Z,11.58
2023-05-08T03:24:07.412Z,11.48
2023-05-08T03:26:34.592Z,11.43
2023-05-08T03:29:02.620Z,11.46
2023-05-08T03:31:33.126Z,11.40
2023-05-08T03:34:00.734Z,11.33
2023-05-08T03:36:28.990Z,11.33
2023-05-08T03:38:56.093Z,11.35
2023-05-08T03:41:25.472Z,11.33
2023-05-08T03:43:54.113Z,11.42
2023-05-08T03:46:21.290Z,11.48
2023-05-08T03:48:49.439Z,11.54
2023-05-08T03:51:18.411Z,11.41
2023-05-08T03:53:45.160Z,11.48
2023-05-08T03:56:13.449Z,11.43
2023-05-08T03:59:24.387Z,11.38
2023-05-08T04:02:19.907Z,11.37
2023-05-08T04:04:53.003Z,11.36
2023-05-08T04:07:29.454Z,11.27
2023-05-08T04:10:20.624Z,11.26
2023-05-08T04:13:10.974Z,11.27
2023-05-08T04:15:51.164Z,11.33
2023-05-08T04:18:24.559Z,11.33
2023-05-08T04:20:55.917Z,11.39
2023-05-08T04:23:23.963Z,11.24
2023-05-08T04:25:53.223Z,11.33
2023-05-08T04:28:21.977Z,11.29
2023-05-08T04:30:49.919Z,11.26
2023-05-08T04:33:18.696Z,11.25
2023-05-08T04:35:46.405Z,11.20
2023-05-08T04:38:13.631Z,11.22
2023-05-08T04:40:40.781Z,11.21
2023-05-08T04:43:09.426Z,11.23
2023-05-08T04:45:36.848Z,11.21
2023-05-08T04:48:03.947Z,11.27
2023-05-08T04:50:30.927Z,11.28
2023-05-08T04:52:57.640Z,11.26
2023-05-08T04:55:24.450Z,11.37
2023-05-08T04:57:52.091Z,11.31
2023-05-08T05:00:19.750Z,11.35
2023-05-08T05:02:46.955Z,11.32
2023-05-08T05:05:13.924Z,11.31
2023-05-08T05:07:41.664Z,11.36
2023-05-08T05:10:09.155Z,11.31
2023-05-08T05:12:35.877Z,11.32
2023-05-08T05:15:03.219Z,11.33
2023-05-08T05:17:33.592Z,11.33
2023-05-08T05:20:00.532Z,11.35
2023-05-08T05:22:28.897Z,11.49
2023-05-08T05:24:55.939Z,11.45
2023-05-08T05:27:22.728Z,11.41
2023-05-08T05:29:49.511Z,11.53
2023-05-08T05:32:16.751Z,11.36
2023-05-08T05:34:43.712Z,11.40
2023-05-08T05:37:10.672Z,11.41
2023-05-08T05:39:38.041Z,11.47
2023-05-08T05:42:05.498Z,11.34
2023-05-08T05:44:32.430Z,11.46
2023-05-08T05:47:00.136Z,11.36
2023-05-08T05:49:26.918Z,11.32
2023-05-08T05:51:53.605Z,11.36
2023-05-08T05:54:20.383Z,11.41
2023-05-08T05:56:47.214Z,11.37
2023-05-08T05:59:14.263Z,11.46
2023-05-08T06:01:41.038Z,11.43
2023-05-08T06:04:08.046Z,11.43
2023-05-08T06:06:34.772Z,11.41
2023-05-08T06:09:01.809Z,11.51
2023-05-08T06:11:28.524Z,11.44
2023-05-08T06:13:55.268Z,11.44
2023-05-08T06:16:23.381Z,11.60
2023-05-08T06:18:50.286Z,11.60
2023-05-08T06:21:17.151Z,11.69
2023-05-08T06:23:44.381Z,11.70
2023-05-08T06:26:11.264Z,11.63
2023-05-08T06:28:38.009Z,11.57
2023-05-08T06:31:04.844Z,11.74
2023-05-08T06:33:31.859Z,11.68
2023-05-08T06:35:58.519Z,11.76
2023-05-08T06:38:25.258Z,11.81
2023-05-08T06:40:52.090Z,11.68
2023-05-08T06:43:18.739Z,11.75
2023-05-08T06:45:45.883Z,11.92
2023-05-08T06:48:13.525Z,11.84
2023-05-08T06:50:40.888Z,11.75
2023-05-08T06:53:08.219Z,11.75
2023-05-08T06:55:35.224Z,11.75
2023-05-08T06:58:01.912Z,11.86
2023-05-08T07:00:28.654Z,11.95
2023-05-08T07:02:55.611Z,12.18
2023-05-08T07:05:22.565Z,12.18
2023-05-08T07:07:49.378Z,12.18
2023-05-08T07:10:17.027Z,12.48
2023-05-08T07:12:43.861Z,12.57
2023-05-08T07:15:24.134Z,12.59
2023-05-08T07:17:57.821Z,12.63
2023-05-08T07:20:24.792Z,12.76
2023-05-08T07:22:51.624Z,12.94
2023-05-08T07:25:18.526Z,12.87
2023-05-08T07:27:45.255Z,12.64
2023-05-08T07:30:12.227Z,12.85
2023-05-08T07:32:39.671Z,12.78
2023-05-08T07:35:10.751Z,12.54
2023-05-08T07:37:38.876Z,12.67
2023-05-08T07:40:06.058Z,12.62
2023-05-08T07:42:38.923Z,12.51
2023-05-08T07:45:06.112Z,12.62
2023-05-08T07:47:32.829Z,12.57
2023-05-08T07:49:59.555Z,12.43
2023-05-08T07:52:26.314Z,12.44
2023-05-08T07:54:53.006Z,12.32
2023-05-08T07:57:19.732Z,12.31
2023-05-08T07:59:46.436Z,12.44
2023-05-08T08:02:13.409Z,12.51
2023-05-08T08:04:40.138Z,12.50
2023-05-08T08:07:06.813Z,12.56
2023-05-08T08:09:33.507Z,12.87
2023-05-08T08:12:03.391Z,12.46
2023-05-08T08:14:30.158Z,12.43
2023-05-08T08:16:56.949Z,12.57
2023-05-08T08:19:23.705Z,12.82
2023-05-08T08:21:50.399Z,12.64
2023-05-08T08:24:17.143Z,12.92
2023-05-08T08:26:44.019Z,12.65
2023-05-08T08:29:10.681Z,12.57
2023-05-08T08:31:37.387Z,12.52
2023-05-08T08:34:04.440Z,13.02
2023-05-08T08:36:31.526Z,12.55
2023-05-08T08:38:58.346Z,12.84
2023-05-08T08:41:25.112Z,12.64
2023-05-08T08:43:51.902Z,12.95
2023-05-08T08:46:24.033Z,12.58
2023-05-08T08:48:52.676Z,12.94
2023-05-08T08:51:28.749Z,12.87
2023-05-08T08:54:03.482Z,13.18
2023-05-08T08:56:31.363Z,13.26
2023-05-08T08:59:02.112Z,13.58
2023-05-08T09:01:30.658Z,13.42
2023-05-08T09:03:59.029Z,13.50
2023-05-08T09:06:27.893Z,13.34
2023-05-08T09:08:58.517Z,13.31
2023-05-08T09:11:25.398Z,13.28
2023-05-08T09:13:52.266Z,13.39
2023-05-08T09:16:19.189Z,13.42
2023-05-08T09:18:46.148Z,13.24
2023-05-08T09:21:13.156Z,13.58
2023-05-08T09:24:15.255Z,13.94
2023-05-08T09:26:42.195Z,13.80
2023-05-08T09:29:08.896Z,13.39
2023-05-08T09:31:42.638Z,13.99
2023-05-08T09:34:11.300Z,14.26
2023-05-08T09:36:40.804Z,13.78
2023-05-08T09:39:12.956Z,13.78
2023-05-08T09:42:00.992Z,13.71
2023-05-08T09:44:28.132Z,14.00
2023-05-08T09:47:25.321Z,14.60
2023-05-08T09:50:03.445Z,14.26
2023-05-08T09:52:31.479Z,14.27
2023-05-08T09:55:02.356Z,14.19
2023-05-08T09:57:31.447Z,14.29
2023-05-08T10:00:05.134Z,14.11
2023-05-08T10:02:34.260Z,14.76
2023-05-08T10:05:01.462Z,14.93
2023-05-08T10:07:32.726Z,14.93
2023-05-08T10:10:06.694Z,14.73
2023-05-08T10:12:33.680Z,14.97
2023-05-08T10:15:00.746Z,15.60
2023-05-08T10:17:43.401Z,15.55
2023-05-08T10:20:13.541Z,15.50
2023-05-08T10:22:43.685Z,15.94
2023-05-08T10:25:16.701Z,15.67
2023-05-08T10:27:58.405Z,15.99
2023-05-08T10:30:26.832Z,16.51
2023-05-08T10:32:58.684Z,15.57
2023-05-08T10:35:26.125Z,15.72
2023-05-08T10:37:55.229Z,16.06
2023-05-08T10:40:23.224Z,15.68
2023-05-08T10:42:50.929Z,17.09
2023-05-08T10:45:19.638Z,16.79
2023-05-08T10:48:14.029Z,16.23
2023-05-08T10:51:08.121Z,16.55
2023-05-08T10:53:49.461Z,17.20
2023-05-08T10:56:16.340Z,16.84
2023-05-08T10:58:43.238Z,16.66
2023-05-08T11:01:09.935Z,16.49
2023-05-08T11:03:42.749Z,17.38
2023-05-08T11:06:10.687Z,16.73
2023-05-08T11:08:46.984Z,17.21
2023-05-08T11:11:24.214Z,17.17
2023-05-08T11:13:55.663Z,17.05
2023-05-08T11:17:07.503Z,16.05
2023-05-08T11:19:34.577Z,16.01
2023-05-08T11:22:19.643Z,16.34
2023-05-08T11:25:04.575Z,16.37
2023-05-08T11:28:01.334Z,16.01
2023-05-08T11:30:39.564Z,15.93
2023-05-08T11:33:08.989Z,15.68
2023-05-08T11:35:42.326Z,15.57
2023-05-08T11:38:32.442Z,15.42
2023-05-08T11:41:07.198Z,15.75
2023-05-08T11:43:33.985Z,15.56
2023-05-08T11:46:04.393Z,15.40
2023-05-08T11:48:32.796Z,15.27
2023-05-08T11:51:00.373Z,15.40
2023-05-08T11:53:27.977Z,15.44
2023-05-08T11:55:55.358Z,15.52
2023-05-08T11:58:22.182Z,15.49
2023-05-08T12:00:49.726Z,15.40
2023-05-08T12:03:19.018Z,15.31
2023-05-08T12:05:46.926Z,15.43
2023-05-08T12:08:15.937Z,15.27
2023-05-08T12:10:52.503Z,15.32
2023-05-08T12:13:21.383Z,15.53
2023-05-08T12:15:49.713Z,15.33
2023-05-08T12:18:17.311Z,15.39
2023-05-08T12:20:44.525Z,15.63
2023-05-08T12:23:11.503Z,15.56
2023-05-08T12:25:39.413Z,15.57
2023-05-08T12:28:10.382Z,15.49
2023-05-08T12:30:37.817Z,15.50
2023-05-08T12:33:05.920Z,15.87
2023-05-08T12:35:33.150Z,15.58
2023-05-08T12:38:03.695Z,15.44
2023-05-08T12:40:32.743Z,15.72
2023-05-08T12:43:03.978Z,15.76
2023-05-08T12:45:34.006Z,15.12
2023-05-08T12:48:03.553Z,15.50
2023-05-08T12:50:38.140Z,15.46
2023-05-08T12:53:09.574Z,15.79
2023-05-08T12:55:38.024Z,15.74
2023-05-08T12:58:06.142Z,15.72
2023-05-08T13:00:44.943Z,16.04
2023-05-08T13:03:21.424Z,16.08
2023-05-08T13:05:48.207Z,16.24
2023-05-08T13:08:14.909Z,15.87
2023-05-08T13:10:51.796Z,15.85
2023-05-08T13:13:22.977Z,15.94
2023-05-08T13:15:50.937Z,15.69
2023-05-08T13:18:20.091Z,15.73
2023-05-08T13:20:47.003Z,15.78
2023-05-08T13:23:14.163Z,16.41
2023-05-08T13:25:41.746Z,16.03
2023-05-08T13:28:10.262Z,16.26
2023-05-08T13:30:37.914Z,16.17
2023-05-08T13:33:05.860Z,16.35
2023-05-08T13:35:34.168Z,16.45
2023-05-08T13:38:01.409Z,16.48
2023-05-08T13:40:28.549Z,16.70
2023-05-08T13:42:55.455Z,16.21
2023-05-08T13:45:22.350Z,16.83
2023-05-08T13:47:50.636Z,17.24
2023-05-08T13:50:19.681Z,17.20
2023-05-08T13:52:46.357Z,16.65
2023-05-08T13:55:14.088Z,16.49
2023-05-08T13:57:41.344Z,16.40
2023-05-08T14:00:09.391Z,17.68
2023-05-08T14:02:37.859Z,18.37
2023-05-08T14:05:05.569Z,17.27
2023-05-08T14:07:32.348Z,16.80
2023-05-08T14:09:59.219Z,17.15
2023-05-08T14:12:26.147Z,17.71
2023-05-08T14:14:52.835Z,16.87
2023-05-08T14:17:19.564Z,17.31
2023-05-08T14:19:46.435Z,18.08
2023-05-08T14:22:13.103Z,17.60
2023-05-08T14:24:40.193Z,17.02
2023-05-08T14:27:06.845Z,17.28
2023-05-08T14:29:34.250Z,17.62
2023-05-08T14:32:01.560Z,17.41
2023-05-08T14:34:28.643Z,18.21
2023-05-08T14:36:55.316Z,18.49
2023-05-08T14:39:22.085Z,18.50
2023-05-08T14:42:10.425Z,17.42
2023-05-08T14:44:35.692Z,17.48
2023-05-08T14:47:02.387Z,17.15
2023-05-08T14:52:16.775Z,17.03
2023-05-08T14:54:43.643Z,17.30
2023-05-08T14:57:10.537Z,17.11
2023-05-08T14:59:39.980Z,16.77
2023-05-08T15:02:12.766Z,16.62
2023-05-08T15:04:41.648Z,16.70
2023-05-08T15:07:08.459Z,16.75
2023-05-08T15:09:35.128Z,16.63
2023-05-08T15:12:03.351Z,16.88
2023-05-08T15:14:30.101Z,16.77
2023-05-08T15:16:56.874Z,16.69
2023-05-08T15:19:23.659Z,16.32
2023-05-08T15:21:50.416Z,16.68
2023-05-08T15:24:17.188Z,16.73
2023-05-08T15:26:43.879Z,16.87
2023-05-08T15:29:10.534Z,16.75
2023-05-08T15:31:37.216Z,16.95
2023-05-08T15:34:03.933Z,16.99
2023-05-08T15:36:32.612Z,16.86
2023-05-08T15:38:59.280Z,16.81
2023-05-08T15:41:25.947Z,17.30
2023-05-08T15:43:52.692Z,16.98
2023-05-08T15:46:19.427Z,17.01
2023-05-08T15:48:46.057Z,17.35
2023-05-08T15:51:13.290Z,17.48
2023-05-08T15:53:40.126Z,17.44
2023-05-08T15:56:07.022Z,17.00
2023-05-08T15:58:34.796Z,16.85
2023-05-08T16:01:01.572Z,16.70
2023-05-08T16:03:28.524Z,16.79
2023-05-08T16:05:55.354Z,16.88
2023-05-08T16:08:22.032Z,16.89
2023-05-08T16:10:48.778Z,16.85
2023-05-08T16:13:16.556Z,17.03
2023-05-08T16:15:44.028Z,16.93
2023-05-08T16:18:11.081Z,17.20
2023-05-08T16:20:40.602Z,17.05
2023-05-08T16:23:07.328Z,17.37
2023-05-08T16:25:34.205Z,17.36
2023-05-08T16:28:00.998Z,17.64
2023-05-08T16:30:27.739Z,17.46
2023-05-08T16:32:54.405Z,17.42
2023-05-08T16:35:21.251Z,17.57
2023-05-08T16:37:48.047Z,17.39
2023-05-08T16:40:14.930Z,17.37
2023-05-08T16:42:41.627Z,17.67
2023-05-08T16:45:09.127Z,17.63
2023-05-08T16:47:36.306Z,17.94
2023-05-08T16:50:04.898Z,18.07
2023-05-08T16:52:33.061Z,18.33
2023-05-08T16:55:00.579Z,18.21
2023-05-08T16:57:27.840Z,18.00
2023-05-08T16:59:54.854Z,18.11
2023-05-08T17:02:22.242Z,18.20
2023-05-08T17:04:50.028Z,18.03
2023-05-08T17:07:17.606Z,17.71
2023-05-08T17:09:44.558Z,17.99
2023-05-08T17:12:11.318Z,17.98
2023-05-08T17:14:40.190Z,17.40
2023-05-08T17:17:07.245Z,17.45
2023-05-08T17:19:34.199Z,17.29
2023-05-08T17:22:01.248Z,17.15
2023-05-08T17:24:30.057Z,17.11
2023-05-08T17:26:56.795Z,17.21
2023-05-08T17:29:23.616Z,17.07
2023-05-08T17:31:50.715Z,17.15
2023-05-08T17:34:17.559Z,17.10
2023-05-08T17:36:44.472Z,17.21
2023-05-08T17:39:11.763Z,17.13
2023-05-08T17:41:38.404Z,17.18
2023-05-08T17:44:05.106Z,17.43
2023-05-08T17:46:31.989Z,17.36
2023-05-08T17:48:58.704Z,17.11
2023-05-08T17:51:25.541Z,17.05
2023-05-08T17:53:53.284Z,16.84
2023-05-08T17:56:21.518Z,16.77
2023-05-08T17:58:48.242Z,16.67
2023-05-08T18:01:15.057Z,16.64
2023-05-08T18:03:42.131Z,16.45
2023-05-08T18:06:08.885Z,16.33
2023-05-08T18:08:35.662Z,16.23
2023-05-08T18:11:02.387Z,16.25
2023-05-08T18:13:29.187Z,16.43
2023-05-08T18:15:56.076Z,16.50
2023-05-08T18:18:22.748Z,16.37
2023-05-08T18:20:49.439Z,16.34
2023-05-08T18:23:16.289Z,16.36
2023-05-08T18:25:43.038Z,16.27
2023-05-08T18:28:09.906Z,16.27
2023-05-08T18:30:38.334Z,16.31
2023-05-08T18:33:05.028Z,16.34
2023-05-08T18:35:31.903Z,16.16
2023-05-08T18:37:58.748Z,16.13
2023-05-08T18:40:25.674Z,16.06
2023-05-08T18:42:52.371Z,15.97
2023-05-08T18:45:19.361Z,15.93
2023-05-08T18:47:46.105Z,15.85
2023-05-08T18:50:13.023Z,15.83
2023-05-08T18:52:40.783Z,15.69
2023-05-08T18:55:07.855Z,15.67
2023-05-08T18:57:34.607Z,15.69
2023-05-08T19:00:01.290Z,15.63
2023-05-08T19:02:28.271Z,15.56
2023-05-08T19:04:55.041Z,15.42
2023-05-08T19:07:21.741Z,15.54
2023-05-08T19:09:48.563Z,15.55
2023-05-08T19:12:15.325Z,15.44
2023-05-08T19:14:42.023Z,15.41
2023-05-08T19:17:08.835Z,15.42
2023-05-08T19:19:35.874Z,15.37
2023-05-08T19:22:02.621Z,15.26
2023-05-08T19:24:30.897Z,15.41
2023-05-08T19:26:59.136Z,15.34
2023-05-08T19:29:25.999Z,15.38
2023-05-08T19:31:52.920Z,15.37
2023-05-08T19:34:19.621Z,15.29
2023-05-08T19:36:46.326Z,15.29
2023-05-08T19:39:13.796Z,15.22
2023-05-08T19:41:40.658Z,15.24
2023-05-08T19:44:07.358Z,15.16
2023-05-08T19:46:34.143Z,15.03
2023-05-08T19:49:00.861Z,14.99
2023-05-08T19:51:27.509Z,14.95
2023-05-08T19:53:54.249Z,14.89
2023-05-08T19:56:21.309Z,14.86
2023-05-08T19:58:48.044Z,14.86
2023-05-08T20:01:14.953Z,14.89
2023-05-08T20:03:41.803Z,14.78
2023-05-08T20:06:08.711Z,14.73
2023-05-08T20:08:35.342Z,14.73
2023-05-08T20:11:07.289Z,14.72
2023-05-08T20:13:33.971Z,14.65
2023-05-08T20:16:00.714Z,14.61
2023-05-08T20:18:27.780Z,14.61
2023-05-08T20:20:54.483Z,14.59
2023-05-08T20:23:21.243Z,14.54
2023-05-08T20:25:48.259Z,14.49
2023-05-08T20:28:15.527Z,14.48
2023-05-08T20:30:42.394Z,14.49
2023-05-08T20:33:09.288Z,14.48
2023-05-08T20:35:36.236Z,14.53
2023-05-08T20:38:02.930Z,14.43
2023-05-08T20:40:29.744Z,14.45
2023-05-08T20:42:56.573Z,14.42
2023-05-08T20:45:23.232Z,14.40
2023-05-08T20:47:50.012Z,14.38
2023-05-08T20:50:17.043Z,14.38
2023-05-08T20:52:44.429Z,14.36
2023-05-08T20:55:11.346Z,14.29
2023-05-08T20:57:38.694Z,14.24
2023-05-08T21:00:06.230Z,14.14
2023-05-08T21:02:34.007Z,14.17
2023-05-08T21:05:00.915Z,14.26
2023-05-08T21:07:27.846Z,14.26
2023-05-08T21:09:54.533Z,14.18
2023-05-08T21:12:21.215Z,14.16
2023-05-08T21:14:47.865Z,14.15
2023-05-08T21:17:14.639Z,14.19
2023-05-08T21:19:41.519Z,14.28
2023-05-08T21:22:09.500Z,14.29
2023-05-08T21:24:37.348Z,14.32
2023-05-08T21:27:04.173Z,14.35
2023-05-08T21:29:31.203Z,14.40
2023-05-08T21:31:57.885Z,14.38
2023-05-08T21:34:24.564Z,14.30
2023-05-08T21:36:51.336Z,14.23
2023-05-08T21:39:18.011Z,14.24
2023-05-08T21:41:44.904Z,14.18
2023-05-08T21:44:15.594Z,14.10
2023-05-08T21:46:42.383Z,13.95
2023-05-08T21:49:09.174Z,13.93
2023-05-08T21:51:35.814Z,13.94
2023-05-08T21:54:02.719Z,13.85
2023-05-08T21:56:29.434Z,13.74
2023-05-08T21:58:56.148Z,13.77
2023-05-08T22:01:22.902Z,13.73
2023-05-08T22:03:49.920Z,13.69
2023-05-08T22:06:16.840Z,13.69
2023-05-08T22:08:43.635Z,13.67
2023-05-08T22:11:10.526Z,13.59
2023-05-08T22:13:37.257Z,13.65
2023-05-08T22:16:04.317Z,13.68
2023-05-08T22:18:31.129Z,13.67
2023-05-08T22:20:57.824Z,13.66
2023-05-08T22:23:24.495Z,13.63
2023-05-08T22:25:51.854Z,13.64
2023-05-08T22:28:18.566Z,13.61
2023-05-08T22:30:45.303Z,13.61
2023-05-08T22:33:12.335Z,13.58
2023-05-08T22:35:39.004Z,13.57
2023-05-08T22:38:05.809Z,13.56
2023-05-08T22:40:32.529Z,13.54
2023-05-08T22:42:59.310Z,13.53
2023-05-08T22:45:27.365Z,13.47
2023-05-08T22:47:54.682Z,13.48
2023-05-08T22:50:21.675Z,13.51
2023-05-08T22:52:48.561Z,13.49
2023-05-08T22:55:16.417Z,13.38
2023-05-08T22:57:43.631Z,13.34
2023-05-08T23:00:10.883Z,13.38
2023-05-08T23:02:37.581Z,13.38
2023-05-08T23:05:04.642Z,13.32
2023-05-08T23:07:31.425Z,13.28
2023-05-08T23:09:58.127Z,13.33
2023-05-08T23:12:24.812Z,13.40
2023-05-08T23:14:52.068Z,13.28
2023-05-08T23:17:18.870Z,13.28
2023-05-08T23:19:45.799Z,13.22
2023-05-08T23:22:12.565Z,13.22
2023-05-08T23:24:39.350Z,13.20
2023-05-08T23:27:06.205Z,13.21
2023-05-08T23:29:32.887Z,13.28
2023-05-08T23:32:00.191Z,13.22
2023-05-08T23:34:26.963Z,13.23
2023-05-08T23:36:53.917Z,13.23
2023-05-08T23:39:20.601Z,13.27
2023-05-08T23:41:47.756Z,13.32
2023-05-08T23:44:15.392Z,13.33
2023-05-08T23:46:42.343Z,13.31
2023-05-08T23:49:09.153Z,13.35
2023-05-08T23:51:35.916Z,13.36
2023-05-08T23:54:03.439Z,13.39
2023-05-08T23:56:30.952Z,13.42
2023-05-08T23:58:57.666Z,13.42
